sensor_id;sensor_type;location;lat;lon;timestamp;P1;durP1;ratioP1;P2;durP2;ratioP2
52112;SDS011;38109;49.488;31.988;2023-05-15T13:15:20;2.80;;;2.60;;
52112;SDS011;38109;49.488;31.988;2023-05-15T13:17:46;2.95;;;2.75;;
52112;SDS011;38109;49.488;31.988;2023-05-15T13:20:12;7.43;;;3.15;;
52112;SDS011;38109;49.488;31.988;2023-05-15T13:22:37;3.20;;;2.90;;
52112;SDS011;38109;49.488;31.988;2023-05-15T13:25:03;3.30;;;3.00;;
52112;SDS011;38109;49.488;31.988;2023-05-15T13:27:29;3.10;;;2.85;;
52112;SDS011;38109;49.488;31.988;2023-05-15T13:29:55;3.10;;;2.90;;
52112;SDS011;38109;49.488;31.988;2023-05-15T13:32:21;3.33;;;3.03;;
52112;SDS011;38109;49.488;31.988;2023-05-15T13:34:46;3.40;;;3.10;;
52112;SDS011;38109;49.488;31.988;2023-05-15T13:37:13;3.67;;;2.83;;
52112;SDS011;38109;49.488;31.988;2023-05-15T13:39:39;3.22;;;2.92;;
52112;SDS011;38109;49.488;31.988;2023-05-15T13:42:05;2.92;;;2.72;;
52112;SDS011;38109;49.488;31.988;2023-05-15T13:44:31;2.90;;;2.70;;
52112;SDS011;38109;49.488;31.988;2023-05-15T13:46:56;7.03;;;3.05;;
52112;SDS011;38109;49.488;31.988;2023-05-15T13:49:23;2.85;;;2.65;;
52112;SDS011;38109;49.488;31.988;2023-05-15T13:51:49;2.80;;;2.60;;
52112;SDS011;38109;49.488;31.988;2023-05-15T13:54:14;3.20;;;3.00;;
52112;SDS011;38109;49.488;31.988;2023-05-15T13:56:40;2.80;;;2.60;;
52112;SDS011;38109;49.488;31.988;2023-05-15T13:59:06;2.78;;;2.60;;
52112;SDS011;38109;49.488;31.988;2023-05-15T14:01:31;2.90;;;2.70;;
52112;SDS011;38109;49.488;31.988;2023-05-15T14:03:57;2.97;;;2.78;;
52112;SDS011;38109;49.488;31.988;2023-05-15T14:06:23;3.10;;;2.90;;
52112;SDS011;38109;49.488;31.988;2023-05-15T14:08:49;3.20;;;2.90;;
52112;SDS011;38109;49.488;31.988;2023-05-15T14:11:14;3.10;;;2.90;;
52112;SDS011;38109;49.488;31.988;2023-05-15T14:13:40;3.30;;;3.00;;
52112;SDS011;38109;49.488;31.988;2023-05-15T14:16:06;2.88;;;2.67;;
52112;SDS011;38109;49.488;31.988;2023-05-15T14:18:32;2.97;;;2.78;;
52112;SDS011;38109;49.488;31.988;2023-05-15T14:20:58;2.85;;;2.55;;
52112;SDS011;38109;49.488;31.988;2023-05-15T14:23:24;3.00;;;2.75;;
52112;SDS011;38109;49.488;31.988;2023-05-15T14:25:50;2.83;;;2.63;;
52112;SDS011;38109;49.488;31.988;2023-05-15T14:28:15;3.05;;;2.85;;
52112;SDS011;38109;49.488;31.988;2023-05-15T14:30:41;3.40;;;2.90;;
52112;SDS011;38109;49.488;31.988;2023-05-15T14:33:07;4.38;;;3.00;;
52112;SDS011;38109;49.488;31.988;2023-05-15T14:35:32;3.45;;;2.80;;
52112;SDS011;38109;49.488;31.988;2023-05-15T14:37:58;2.88;;;2.67;;
52112;SDS011;38109;49.488;31.988;2023-05-15T14:43:23;7.32;;;2.80;;
52112;SDS011;38109;49.488;31.988;2023-05-15T14:45:53;3.15;;;2.95;;
52112;SDS011;38109;49.488;31.988;2023-05-15T14:48:19;3.00;;;2.80;;
52112;SDS011;38109;49.488;31.988;2023-05-15T14:50:45;3.17;;;2.97;;
52112;SDS011;38109;49.488;31.988;2023-05-15T14:53:10;3.00;;;2.75;;
52112;SDS011;38109;49.488;31.988;2023-05-15T14:59:05;3.17;;;2.97;;
52112;SDS011;38109;49.488;31.988;2023-05-15T15:01:31;3.13;;;2.90;;
52112;SDS011;38109;49.488;31.988;2023-05-15T15:03:57;3.28;;;2.97;;
52112;SDS011;38109;49.488;31.988;2023-05-15T15:06:22;3.10;;;2.90;;
52112;SDS011;38109;49.488;31.988;2023-05-15T15:08:48;2.97;;;2.78;;
52112;SDS011;38109;49.488;31.988;2023-05-15T15:11:14;3.13;;;2.92;;
52112;SDS011;38109;49.488;31.988;2023-05-15T15:13:40;3.13;;;2.92;;
52112;SDS011;38109;49.488;31.988;2023-05-15T15:16:06;3.10;;;2.90;;
52112;SDS011;38109;49.488;31.988;2023-05-15T15:18:32;2.97;;;2.75;;
52112;SDS011;38109;49.488;31.988;2023-05-15T15:20:57;3.20;;;3.00;;
52112;SDS011;38109;49.488;31.988;2023-05-15T15:23:23;3.35;;;3.15;;
52112;SDS011;38109;49.488;31.988;2023-05-15T15:25:49;3.20;;;2.90;;
52112;SDS011;38109;49.488;31.988;2023-05-15T15:28:14;3.25;;;3.05;;
52112;SDS011;38109;49.488;31.988;2023-05-15T15:30:41;4.07;;;3.13;;
52112;SDS011;38109;49.488;31.988;2023-05-15T15:33:07;3.40;;;3.17;;
52112;SDS011;38109;49.488;31.988;2023-05-15T15:35:33;3.33;;;3.10;;
52112;SDS011;38109;49.488;31.988;2023-05-15T15:37:58;3.05;;;2.85;;
52112;SDS011;38109;49.488;31.988;2023-05-15T15:40:24;3.15;;;2.95;;
52112;SDS011;38109;49.488;31.988;2023-05-15T15:42:50;2.80;;;2.60;;
52112;SDS011;38109;49.488;31.988;2023-05-15T15:45:15;3.15;;;2.90;;
52112;SDS011;38109;49.488;31.988;2023-05-15T15:47:41;3.38;;;3.13;;
52112;SDS011;38109;49.488;31.988;2023-05-15T15:50:07;2.88;;;2.67;;
52112;SDS011;38109;49.488;31.988;2023-05-15T15:52:33;3.30;;;3.10;;
52112;SDS011;38109;49.488;31.988;2023-05-15T15:54:58;4.35;;;3.10;;
52112;SDS011;38109;49.488;31.988;2023-05-15T15:57:26;2.97;;;2.78;;
52112;SDS011;38109;49.488;31.988;2023-05-15T15:59:53;3.00;;;2.80;;
52112;SDS011;38109;49.488;31.988;2023-05-15T16:02:19;3.38;;;3.08;;
52112;SDS011;38109;49.488;31.988;2023-05-15T16:05:00;3.40;;;3.10;;
52112;SDS011;38109;49.488;31.988;2023-05-15T16:07:26;3.38;;;3.10;;
52112;SDS011;38109;49.488;31.988;2023-05-15T16:09:52;5.72;;;2.90;;
52112;SDS011;38109;49.488;31.988;2023-05-15T16:12:17;2.90;;;2.70;;
52112;SDS011;38109;49.488;31.988;2023-05-15T16:18:23;3.78;;;2.78;;
52112;SDS011;38109;49.488;31.988;2023-05-15T16:20:49;2.90;;;2.70;;
52112;SDS011;38109;49.488;31.988;2023-05-15T16:23:15;3.08;;;2.78;;
52112;SDS011;38109;49.488;31.988;2023-05-15T16:25:41;3.10;;;2.90;;
52112;SDS011;38109;49.488;31.988;2023-05-15T16:28:08;2.70;;;2.50;;
52112;SDS011;38109;49.488;31.988;2023-05-15T16:30:34;2.80;;;2.60;;
52112;SDS011;38109;49.488;31.988;2023-05-15T16:33:00;3.10;;;2.78;;
52112;SDS011;38109;49.488;31.988;2023-05-15T16:35:25;4.53;;;3.05;;
52112;SDS011;38109;49.488;31.988;2023-05-15T16:37:51;2.72;;;2.53;;
52112;SDS011;38109;49.488;31.988;2023-05-15T16:40:17;2.90;;;2.70;;
52112;SDS011;38109;49.488;31.988;2023-05-15T16:42:43;3.72;;;2.92;;
52112;SDS011;38109;49.488;31.988;2023-05-15T16:45:09;5.88;;;2.63;;
52112;SDS011;38109;49.488;31.988;2023-05-15T16:47:37;3.05;;;2.72;;
52112;SDS011;38109;49.488;31.988;2023-05-15T16:50:04;3.13;;;2.80;;
52112;SDS011;38109;49.488;31.988;2023-05-15T16:52:31;3.00;;;2.70;;
52112;SDS011;38109;49.488;31.988;2023-05-15T16:54:57;3.28;;;2.90;;
52112;SDS011;38109;49.488;31.988;2023-05-15T16:57:23;2.83;;;2.63;;
52112;SDS011;38109;49.488;31.988;2023-05-15T16:59:48;4.63;;;3.10;;
52112;SDS011;38109;49.488;31.988;2023-05-15T17:02:14;2.90;;;2.67;;
52112;SDS011;38109;49.488;31.988;2023-05-15T17:04:40;3.47;;;2.90;;
52112;SDS011;38109;49.488;31.988;2023-05-15T17:07:05;2.78;;;2.58;;
52112;SDS011;38109;49.488;31.988;2023-05-15T17:09:31;2.88;;;2.63;;
52112;SDS011;38109;49.488;31.988;2023-05-15T17:11:57;3.42;;;2.80;;
52112;SDS011;38109;49.488;31.988;2023-05-15T17:14:24;3.10;;;2.80;;
52112;SDS011;38109;49.488;31.988;2023-05-15T17:16:50;4.43;;;2.83;;
52112;SDS011;38109;49.488;31.988;2023-05-15T17:19:16;3.60;;;3.00;;
52112;SDS011;38109;49.488;31.988;2023-05-15T17:21:41;3.30;;;3.00;;
52112;SDS011;38109;49.488;31.988;2023-05-15T17:24:08;3.30;;;2.75;;
52112;SDS011;38109;49.488;31.988;2023-05-15T17:26:34;2.80;;;2.60;;
52112;SDS011;38109;49.488;31.988;2023-05-15T17:29:00;5.43;;;2.92;;
52112;SDS011;38109;49.488;31.988;2023-05-15T17:31:25;5.75;;;3.00;;
52112;SDS011;38109;49.488;31.988;2023-05-15T17:33:53;2.92;;;2.72;;
52112;SDS011;38109;49.488;31.988;2023-05-15T17:36:18;3.30;;;3.00;;
52112;SDS011;38109;49.488;31.988;2023-05-15T17:38:44;3.33;;;2.95;;
52112;SDS011;38109;49.488;31.988;2023-05-15T17:41:09;3.38;;;2.90;;
52112;SDS011;38109;49.488;31.988;2023-05-15T17:43:35;2.90;;;2.70;;
52112;SDS011;38109;49.488;31.988;2023-05-15T17:46:01;3.17;;;2.88;;
52112;SDS011;38109;49.488;31.988;2023-05-15T17:48:27;3.08;;;2.83;;
52112;SDS011;38109;49.488;31.988;2023-05-15T17:50:53;3.80;;;3.22;;
52112;SDS011;38109;49.488;31.988;2023-05-15T17:53:18;3.17;;;2.88;;
52112;SDS011;38109;49.488;31.988;2023-05-15T17:55:44;3.20;;;2.90;;
52112;SDS011;38109;49.488;31.988;2023-05-15T17:58:10;5.53;;;2.75;;
52112;SDS011;38109;49.488;31.988;2023-05-15T18:00:35;2.80;;;2.60;;
52112;SDS011;38109;49.488;31.988;2023-05-15T18:03:01;3.60;;;3.30;;
52112;SDS011;38109;49.488;31.988;2023-05-15T18:05:27;4.22;;;3.40;;
52112;SDS011;38109;49.488;31.988;2023-05-15T18:07:52;3.20;;;2.90;;
52112;SDS011;38109;49.488;31.988;2023-05-15T18:10:20;8.10;;;3.17;;
52112;SDS011;38109;49.488;31.988;2023-05-15T18:12:46;4.63;;;3.20;;
52112;SDS011;38109;49.488;31.988;2023-05-15T18:15:12;4.63;;;3.55;;
52112;SDS011;38109;49.488;31.988;2023-05-15T18:17:37;5.30;;;3.65;;
52112;SDS011;38109;49.488;31.988;2023-05-15T18:20:03;4.10;;;3.50;;
52112;SDS011;38109;49.488;31.988;2023-05-15T18:22:29;4.60;;;3.33;;
52112;SDS011;38109;49.488;31.988;2023-05-15T18:24:55;7.10;;;3.00;;
52112;SDS011;38109;49.488;31.988;2023-05-15T18:27:21;4.80;;;3.15;;
52112;SDS011;38109;49.488;31.988;2023-05-15T18:29:46;3.15;;;2.85;;
52112;SDS011;38109;49.488;31.988;2023-05-15T18:32:12;2.97;;;2.70;;
52112;SDS011;38109;49.488;31.988;2023-05-15T18:34:38;4.47;;;2.70;;
52112;SDS011;38109;49.488;31.988;2023-05-15T18:37:03;2.85;;;2.50;;
52112;SDS011;38109;49.488;31.988;2023-05-15T18:39:29;4.50;;;2.92;;
52112;SDS011;38109;49.488;31.988;2023-05-15T18:41:55;2.80;;;2.60;;
52112;SDS011;38109;49.488;31.988;2023-05-15T18:44:21;3.10;;;2.50;;
52112;SDS011;38109;49.488;31.988;2023-05-15T18:46:46;2.85;;;2.65;;
52112;SDS011;38109;49.488;31.988;2023-05-15T18:49:12;2.58;;;2.38;;
52112;SDS011;38109;49.488;31.988;2023-05-15T18:51:38;3.15;;;2.85;;
52112;SDS011;38109;49.488;31.988;2023-05-15T18:54:03;2.75;;;2.55;;
52112;SDS011;38109;49.488;31.988;2023-05-15T18:56:30;2.95;;;2.75;;
52112;SDS011;38109;49.488;31.988;2023-05-15T18:58:55;5.00;;;2.90;;
52112;SDS011;38109;49.488;31.988;2023-05-15T19:01:21;3.75;;;2.90;;
52112;SDS011;38109;49.488;31.988;2023-05-15T19:03:47;3.63;;;3.03;;
52112;SDS011;38109;49.488;31.988;2023-05-15T19:06:12;3.95;;;2.97;;
52112;SDS011;38109;49.488;31.988;2023-05-15T19:08:43;3.15;;;2.85;;
52112;SDS011;38109;49.488;31.988;2023-05-15T19:11:10;2.67;;;2.47;;
52112;SDS011;38109;49.488;31.988;2023-05-15T19:13:40;3.03;;;2.75;;
52112;SDS011;38109;49.488;31.988;2023-05-15T19:16:06;3.25;;;2.85;;
52112;SDS011;38109;49.488;31.988;2023-05-15T19:18:35;3.35;;;2.97;;
52112;SDS011;38109;49.488;31.988;2023-05-15T19:21:01;3.20;;;2.90;;
52112;SDS011;38109;49.488;31.988;2023-05-15T19:23:28;3.40;;;3.05;;
52112;SDS011;38109;49.488;31.988;2023-05-15T19:25:54;3.17;;;2.88;;
52112;SDS011;38109;49.488;31.988;2023-05-15T19:28:20;3.15;;;2.90;;
52112;SDS011;38109;49.488;31.988;2023-05-15T19:30:46;8.85;;;2.83;;
52112;SDS011;38109;49.488;31.988;2023-05-15T19:33:12;3.03;;;2.70;;
52112;SDS011;38109;49.488;31.988;2023-05-15T19:35:39;2.70;;;2.50;;
52112;SDS011;38109;49.488;31.988;2023-05-15T19:38:05;3.00;;;2.70;;
52112;SDS011;38109;49.488;31.988;2023-05-15T19:40:31;3.38;;;2.97;;
52112;SDS011;38109;49.488;31.988;2023-05-15T19:42:58;3.03;;;2.72;;
52112;SDS011;38109;49.488;31.988;2023-05-15T19:45:24;5.45;;;2.80;;
52112;SDS011;38109;49.488;31.988;2023-05-15T19:47:49;7.68;;;3.20;;
52112;SDS011;38109;49.488;31.988;2023-05-15T19:50:15;4.15;;;2.90;;
52112;SDS011;38109;49.488;31.988;2023-05-15T19:52:42;2.90;;;2.65;;
52112;SDS011;38109;49.488;31.988;2023-05-15T19:55:08;4.10;;;2.83;;
52112;SDS011;38109;49.488;31.988;2023-05-15T19:57:34;3.42;;;3.10;;
52112;SDS011;38109;49.488;31.988;2023-05-15T20:00:01;3.80;;;2.88;;
52112;SDS011;38109;49.488;31.988;2023-05-15T20:02:28;6.28;;;3.30;;
52112;SDS011;38109;49.488;31.988;2023-05-15T20:04:54;3.78;;;3.20;;
52112;SDS011;38109;49.488;31.988;2023-05-15T20:07:20;2.95;;;2.75;;
52112;SDS011;38109;49.488;31.988;2023-05-15T20:09:45;5.70;;;3.33;;
52112;SDS011;38109;49.488;31.988;2023-05-15T20:12:11;5.35;;;3.30;;
52112;SDS011;38109;49.488;31.988;2023-05-15T20:14:37;3.33;;;2.72;;
52112;SDS011;38109;49.488;31.988;2023-05-15T20:17:02;3.55;;;2.95;;
52112;SDS011;38109;49.488;31.988;2023-05-15T20:19:28;3.05;;;2.80;;
52112;SDS011;38109;49.488;31.988;2023-05-15T20:21:54;3.35;;;3.00;;
52112;SDS011;38109;49.488;31.988;2023-05-15T20:24:20;3.47;;;3.00;;
52112;SDS011;38109;49.488;31.988;2023-05-15T20:26:49;3.15;;;2.85;;
52112;SDS011;38109;49.488;31.988;2023-05-15T20:29:15;3.03;;;2.75;;
52112;SDS011;38109;49.488;31.988;2023-05-15T20:31:41;6.97;;;3.03;;
52112;SDS011;38109;49.488;31.988;2023-05-15T20:34:08;3.75;;;2.90;;
52112;SDS011;38109;49.488;31.988;2023-05-15T20:36:39;3.53;;;3.00;;
52112;SDS011;38109;49.488;31.988;2023-05-15T20:39:05;3.45;;;2.90;;
52112;SDS011;38109;49.488;31.988;2023-05-15T20:41:31;2.90;;;2.70;;
52112;SDS011;38109;49.488;31.988;2023-05-15T20:43:57;3.90;;;2.60;;
52112;SDS011;38109;49.488;31.988;2023-05-15T20:46:23;3.08;;;2.78;;
52112;SDS011;38109;49.488;31.988;2023-05-15T20:48:49;2.60;;;2.40;;
52112;SDS011;38109;49.488;31.988;2023-05-15T20:51:15;2.88;;;2.35;;
52112;SDS011;38109;49.488;31.988;2023-05-15T20:53:40;2.72;;;2.45;;
52112;SDS011;38109;49.488;31.988;2023-05-15T20:56:06;6.63;;;2.70;;
52112;SDS011;38109;49.488;31.988;2023-05-15T20:58:32;2.95;;;2.58;;
52112;SDS011;38109;49.488;31.988;2023-05-15T21:00:57;2.80;;;2.60;;
52112;SDS011;38109;49.488;31.988;2023-05-15T21:03:25;2.50;;;2.30;;
52112;SDS011;38109;49.488;31.988;2023-05-15T21:05:50;2.70;;;2.45;;
52112;SDS011;38109;49.488;31.988;2023-05-15T21:08:17;4.55;;;2.40;;
52112;SDS011;38109;49.488;31.988;2023-05-15T21:10:43;2.70;;;2.50;;
52112;SDS011;38109;49.488;31.988;2023-05-15T21:13:09;2.58;;;2.38;;
52112;SDS011;38109;49.488;31.988;2023-05-15T21:15:35;2.78;;;2.30;;
52112;SDS011;38109;49.488;31.988;2023-05-15T21:18:02;2.60;;;2.40;;
52112;SDS011;38109;49.488;31.988;2023-05-15T21:20:28;2.65;;;2.45;;
52112;SDS011;38109;49.488;31.988;2023-05-15T21:22:53;2.67;;;2.33;;
52112;SDS011;38109;49.488;31.988;2023-05-15T21:25:19;2.60;;;2.33;;
52112;SDS011;38109;49.488;31.988;2023-05-15T21:27:45;2.50;;;2.30;;
52112;SDS011;38109;49.488;31.988;2023-05-15T21:30:11;2.40;;;2.20;;
52112;SDS011;38109;49.488;31.988;2023-05-15T21:32:37;2.40;;;2.20;;
52112;SDS011;38109;49.488;31.988;2023-05-15T21:35:02;2.45;;;2.25;;
52112;SDS011;38109;49.488;31.988;2023-05-15T21:37:28;2.60;;;2.33;;
52112;SDS011;38109;49.488;31.988;2023-05-15T21:39:54;2.45;;;2.25;;
52112;SDS011;38109;49.488;31.988;2023-05-15T21:42:20;2.33;;;2.13;;
52112;SDS011;38109;49.488;31.988;2023-05-15T21:44:46;2.95;;;2.20;;
52112;SDS011;38109;49.488;31.988;2023-05-15T21:47:11;2.72;;;2.20;;
52112;SDS011;38109;49.488;31.988;2023-05-15T21:49:37;2.70;;;2.50;;
52112;SDS011;38109;49.488;31.988;2023-05-15T21:52:03;2.80;;;2.60;;
52112;SDS011;38109;49.488;31.988;2023-05-15T21:54:28;2.63;;;2.25;;
52112;SDS011;38109;49.488;31.988;2023-05-15T21:56:54;2.17;;;2.05;;
52112;SDS011;38109;49.488;31.988;2023-05-15T21:59:20;2.40;;;2.20;;
52112;SDS011;38109;49.488;31.988;2023-05-15T22:01:46;2.58;;;2.38;;
52112;SDS011;38109;49.488;31.988;2023-05-15T22:04:12;2.53;;;2.35;;
52112;SDS011;38109;49.488;31.988;2023-05-15T22:06:38;7.78;;;2.67;;
52112;SDS011;38109;49.488;31.988;2023-05-15T22:09:03;4.30;;;2.70;;
52112;SDS011;38109;49.488;31.988;2023-05-15T22:11:30;2.60;;;2.40;;
52112;SDS011;38109;49.488;31.988;2023-05-15T22:13:55;2.60;;;2.40;;
52112;SDS011;38109;49.488;31.988;2023-05-15T22:16:21;2.53;;;2.20;;
52112;SDS011;38109;49.488;31.988;2023-05-15T22:18:46;2.78;;;2.30;;
52112;SDS011;38109;49.488;31.988;2023-05-15T22:21:12;2.88;;;2.55;;
52112;SDS011;38109;49.488;31.988;2023-05-15T22:23:38;2.85;;;2.28;;
52112;SDS011;38109;49.488;31.988;2023-05-15T22:26:04;2.92;;;2.67;;
52112;SDS011;38109;49.488;31.988;2023-05-15T22:28:30;3.47;;;2.92;;
52112;SDS011;38109;49.488;31.988;2023-05-15T22:30:56;7.50;;;3.22;;
52112;SDS011;38109;49.488;31.988;2023-05-15T22:33:21;3.72;;;3.00;;
52112;SDS011;38109;49.488;31.988;2023-05-15T22:35:51;2.55;;;2.35;;
52112;SDS011;38109;49.488;31.988;2023-05-15T22:38:17;2.88;;;2.50;;
52112;SDS011;38109;49.488;31.988;2023-05-15T22:40:43;2.92;;;2.50;;
52112;SDS011;38109;49.488;31.988;2023-05-15T22:43:16;2.75;;;2.42;;
52112;SDS011;38109;49.488;31.988;2023-05-15T22:45:42;3.53;;;2.63;;
52112;SDS011;38109;49.488;31.988;2023-05-15T22:48:08;3.90;;;3.15;;
52112;SDS011;38109;49.488;31.988;2023-05-15T22:50:33;3.00;;;2.70;;
52112;SDS011;38109;49.488;31.988;2023-05-15T22:53:00;4.75;;;2.88;;
52112;SDS011;38109;49.488;31.988;2023-05-15T22:55:25;5.05;;;3.20;;
52112;SDS011;38109;49.488;31.988;2023-05-15T22:57:51;4.85;;;2.90;;
52112;SDS011;38109;49.488;31.988;2023-05-15T23:00:17;3.60;;;2.72;;
52112;SDS011;38109;49.488;31.988;2023-05-15T23:02:43;3.28;;;2.92;;
52112;SDS011;38109;49.488;31.988;2023-05-15T23:05:08;2.75;;;2.50;;
52112;SDS011;38109;49.488;31.988;2023-05-15T23:07:34;3.13;;;2.80;;
52112;SDS011;38109;49.488;31.988;2023-05-15T23:10:00;3.90;;;2.63;;
52112;SDS011;38109;49.488;31.988;2023-05-15T23:12:25;3.53;;;2.60;;
52112;SDS011;38109;49.488;31.988;2023-05-15T23:14:51;3.70;;;2.90;;
52112;SDS011;38109;49.488;31.988;2023-05-15T23:17:17;3.70;;;2.85;;
52112;SDS011;38109;49.488;31.988;2023-05-15T23:19:42;3.67;;;3.03;;
52112;SDS011;38109;49.488;31.988;2023-05-15T23:22:09;4.60;;;2.95;;
52112;SDS011;38109;49.488;31.988;2023-05-15T23:24:35;4.32;;;3.38;;
52112;SDS011;38109;49.488;31.988;2023-05-15T23:27:01;3.25;;;2.65;;
52112;SDS011;38109;49.488;31.988;2023-05-15T23:29:28;3.55;;;2.90;;
52112;SDS011;38109;49.488;31.988;2023-05-15T23:31:55;3.33;;;3.03;;
52112;SDS011;38109;49.488;31.988;2023-05-15T23:34:20;5.25;;;2.90;;
52112;SDS011;38109;49.488;31.988;2023-05-15T23:36:46;3.85;;;3.20;;
52112;SDS011;38109;49.488;31.988;2023-05-15T23:39:12;3.60;;;2.97;;
52112;SDS011;38109;49.488;31.988;2023-05-15T23:41:37;4.20;;;3.08;;
52112;SDS011;38109;49.488;31.988;2023-05-15T23:44:03;3.35;;;2.63;;
52112;SDS011;38109;49.488;31.988;2023-05-15T23:46:29;3.60;;;2.65;;
52112;SDS011;38109;49.488;31.988;2023-05-15T23:48:55;4.07;;;3.10;;
52112;SDS011;38109;49.488;31.988;2023-05-15T23:51:20;3.47;;;2.72;;
52112;SDS011;38109;49.488;31.988;2023-05-15T23:53:47;2.67;;;2.47;;
52112;SDS011;38109;49.488;31.988;2023-05-15T23:56:13;3.35;;;2.65;;
52112;SDS011;38109;49.488;31.988;2023-05-15T23:58:39;4.20;;;2.97;;
